Terminal Aerodrome Forecast
Issued by NWS Charleston, WV

Current Version | Previous Version | Text Only | Print | Product List | Glossary Off
Versions: 1 2 3 4 5 6 7 8 9 10 11 12 13 14 15 16 17 18 19 20 21 22

000
FTUS41 KRLX 011120
TAFPKB
TAF
KPKB 011120Z 0112/0212 34005KT 6SM BR OVC007
     FM011400 36005KT P6SM OVC012
      TEMPO 0114/0118 5SM -SHRA
     FM011800 01004KT 5SM -SHRA OVC020
     FM012100 VRB03KT 5SM BR OVC020
     FM020300 02004KT 4SM BR OVC015=

USA.gov is the U.S. government's official web portal to all federal, state and local government web resources and services.